sensor_id;sensor_type;location;lat;lon;timestamp;temperature;humidity
67752;DHT22;54551;51.068;5.826;2023-05-10T00:02:11;15.50;99.90
67752;DHT22;54551;51.068;5.826;2023-05-10T00:04:37;15.40;99.90
67752;DHT22;54551;51.068;5.826;2023-05-10T00:07:02;15.40;99.90
67752;DHT22;54551;51.068;5.826;2023-05-10T00:09:28;15.40;99.90
67752;DHT22;54551;51.068;5.826;2023-05-10T00:11:54;15.40;99.90
67752;DHT22;54551;51.068;5.826;2023-05-10T00:14:20;15.40;99.90
67752;DHT22;54551;51.068;5.826;2023-05-10T00:16:46;15.40;99.90
67752;DHT22;54551;51.068;5.826;2023-05-10T00:19:12;15.40;99.90
67752;DHT22;54551;51.068;5.826;2023-05-10T00:21:38;15.40;99.90
67752;DHT22;54551;51.068;5.826;2023-05-10T00:24:04;15.30;99.90
67752;DHT22;54551;51.068;5.826;2023-05-10T00:26:30;15.30;99.90
67752;DHT22;54551;51.068;5.826;2023-05-10T00:28:56;15.30;99.90
67752;DHT22;54551;51.068;5.826;2023-05-10T00:31:22;15.20;99.90
67752;DHT22;54551;51.068;5.826;2023-05-10T00:33:49;15.20;99.90
67752;DHT22;54551;51.068;5.826;2023-05-10T00:36:15;15.20;99.90
67752;DHT22;54551;51.068;5.826;2023-05-10T00:38:41;15.20;99.90
67752;DHT22;54551;51.068;5.826;2023-05-10T00:41:07;15.20;99.90
67752;DHT22;54551;51.068;5.826;2023-05-10T00:43:35;15.20;99.90
67752;DHT22;54551;51.068;5.826;2023-05-10T00:46:04;15.20;99.90
67752;DHT22;54551;51.068;5.826;2023-05-10T00:48:30;15.20;99.90
67752;DHT22;54551;51.068;5.826;2023-05-10T00:50:56;15.20;99.90
67752;DHT22;54551;51.068;5.826;2023-05-10T00:53:21;15.20;99.90
67752;DHT22;54551;51.068;5.826;2023-05-10T00:55:47;15.20;99.90
67752;DHT22;54551;51.068;5.826;2023-05-10T00:58:14;15.20;99.90
67752;DHT22;54551;51.068;5.826;2023-05-10T01:00:42;15.30;99.90
67752;DHT22;54551;51.068;5.826;2023-05-10T01:03:10;15.30;99.90
67752;DHT22;54551;51.068;5.826;2023-05-10T01:05:37;15.30;99.90
67752;DHT22;54551;51.068;5.826;2023-05-10T01:08:03;15.30;99.90
67752;DHT22;54551;51.068;5.826;2023-05-10T01:10:30;15.30;99.90
67752;DHT22;54551;51.068;5.826;2023-05-10T01:12:57;15.30;99.90
67752;DHT22;54551;51.068;5.826;2023-05-10T01:15:25;15.30;99.90
67752;DHT22;54551;51.068;5.826;2023-05-10T01:17:51;15.30;99.90
67752;DHT22;54551;51.068;5.826;2023-05-10T01:20:18;15.30;99.90
67752;DHT22;54551;51.068;5.826;2023-05-10T01:26:48;15.20;99.90
67752;DHT22;54551;51.068;5.826;2023-05-10T01:32:32;15.20;99.90
67752;DHT22;54551;51.068;5.826;2023-05-10T01:40:18;15.20;99.90
67752;DHT22;54551;51.068;5.826;2023-05-10T01:42:53;15.20;99.90
67752;DHT22;54551;51.068;5.826;2023-05-10T01:45:39;15.30;99.90
67752;DHT22;54551;51.068;5.826;2023-05-10T01:48:10;15.30;99.90
67752;DHT22;54551;51.068;5.826;2023-05-10T01:50:38;15.30;99.90
67752;DHT22;54551;51.068;5.826;2023-05-10T01:53:09;15.30;99.90
67752;DHT22;54551;51.068;5.826;2023-05-10T01:55:44;15.30;99.90
67752;DHT22;54551;51.068;5.826;2023-05-10T01:58:25;15.30;99.90
67752;DHT22;54551;51.068;5.826;2023-05-10T02:00:53;15.30;99.90
67752;DHT22;54551;51.068;5.826;2023-05-10T02:03:23;15.30;99.90
67752;DHT22;54551;51.068;5.826;2023-05-10T02:05:50;15.30;99.90
67752;DHT22;54551;51.068;5.826;2023-05-10T02:08:22;15.30;99.90
67752;DHT22;54551;51.068;5.826;2023-05-10T02:10:51;15.30;99.90
67752;DHT22;54551;51.068;5.826;2023-05-10T02:13:18;15.30;99.90
67752;DHT22;54551;51.068;5.826;2023-05-10T02:15:48;15.30;99.90
67752;DHT22;54551;51.068;5.826;2023-05-10T02:18:14;15.30;99.90
67752;DHT22;54551;51.068;5.826;2023-05-10T02:20:43;15.30;99.90
67752;DHT22;54551;51.068;5.826;2023-05-10T02:23:10;15.30;99.90
67752;DHT22;54551;51.068;5.826;2023-05-10T02:25:37;15.20;99.90
67752;DHT22;54551;51.068;5.826;2023-05-10T02:28:06;15.20;99.90
67752;DHT22;54551;51.068;5.826;2023-05-10T02:30:35;15.20;99.90
67752;DHT22;54551;51.068;5.826;2023-05-10T02:33:02;15.20;99.90
67752;DHT22;54551;51.068;5.826;2023-05-10T02:35:30;15.20;99.90
67752;DHT22;54551;51.068;5.826;2023-05-10T02:37:57;15.20;99.90
67752;DHT22;54551;51.068;5.826;2023-05-10T02:40:26;15.20;99.90
67752;DHT22;54551;51.068;5.826;2023-05-10T02:42:54;15.20;99.90
67752;DHT22;54551;51.068;5.826;2023-05-10T02:45:23;15.20;99.90
67752;DHT22;54551;51.068;5.826;2023-05-10T02:47:50;15.20;99.90
67752;DHT22;54551;51.068;5.826;2023-05-10T02:50:16;15.10;99.90
67752;DHT22;54551;51.068;5.826;2023-05-10T02:52:56;15.10;99.90
67752;DHT22;54551;51.068;5.826;2023-05-10T02:55:27;15.10;99.90
67752;DHT22;54551;51.068;5.826;2023-05-10T02:58:01;15.10;99.90
67752;DHT22;54551;51.068;5.826;2023-05-10T03:00:28;15.00;99.90
67752;DHT22;54551;51.068;5.826;2023-05-10T03:02:54;15.00;99.90
67752;DHT22;54551;51.068;5.826;2023-05-10T03:05:21;15.00;99.90
67752;DHT22;54551;51.068;5.826;2023-05-10T03:07:47;15.00;99.90
67752;DHT22;54551;51.068;5.826;2023-05-10T03:10:14;15.00;99.90
67752;DHT22;54551;51.068;5.826;2023-05-10T03:18:09;15.00;99.90
67752;DHT22;54551;51.068;5.826;2023-05-10T03:20:42;14.90;99.90
67752;DHT22;54551;51.068;5.826;2023-05-10T03:23:13;14.90;99.90
67752;DHT22;54551;51.068;5.826;2023-05-10T03:25:43;14.80;99.90
67752;DHT22;54551;51.068;5.826;2023-05-10T03:28:11;14.80;99.90
67752;DHT22;54551;51.068;5.826;2023-05-10T03:30:38;14.80;99.90
67752;DHT22;54551;51.068;5.826;2023-05-10T03:33:05;14.80;99.90
67752;DHT22;54551;51.068;5.826;2023-05-10T03:35:38;14.80;99.90
67752;DHT22;54551;51.068;5.826;2023-05-10T03:38:05;14.80;99.90
67752;DHT22;54551;51.068;5.826;2023-05-10T03:40:31;14.80;99.90
67752;DHT22;54551;51.068;5.826;2023-05-10T03:43:01;14.80;99.90
67752;DHT22;54551;51.068;5.826;2023-05-10T03:45:27;14.90;99.90
67752;DHT22;54551;51.068;5.826;2023-05-10T03:47:53;14.90;99.90
67752;DHT22;54551;51.068;5.826;2023-05-10T03:50:20;14.90;99.90
67752;DHT22;54551;51.068;5.826;2023-05-10T03:52:47;14.90;99.90
67752;DHT22;54551;51.068;5.826;2023-05-10T03:55:12;14.90;99.90
67752;DHT22;54551;51.068;5.826;2023-05-10T03:57:38;14.90;99.90
67752;DHT22;54551;51.068;5.826;2023-05-10T04:00:07;14.90;99.90
67752;DHT22;54551;51.068;5.826;2023-05-10T04:02:42;14.90;99.90
67752;DHT22;54551;51.068;5.826;2023-05-10T04:05:13;14.80;99.90
67752;DHT22;54551;51.068;5.826;2023-05-10T04:07:39;14.80;99.90
67752;DHT22;54551;51.068;5.826;2023-05-10T04:10:05;14.80;99.90
67752;DHT22;54551;51.068;5.826;2023-05-10T04:12:32;14.80;99.90
67752;DHT22;54551;51.068;5.826;2023-05-10T04:14:57;14.80;99.90
67752;DHT22;54551;51.068;5.826;2023-05-10T04:17:23;14.80;99.90
67752;DHT22;54551;51.068;5.826;2023-05-10T04:19:49;14.80;99.90
67752;DHT22;54551;51.068;5.826;2023-05-10T04:22:18;14.80;99.90
67752;DHT22;54551;51.068;5.826;2023-05-10T04:24:44;14.80;99.90
67752;DHT22;54551;51.068;5.826;2023-05-10T04:27:10;14.70;99.90
67752;DHT22;54551;51.068;5.826;2023-05-10T04:29:39;14.80;99.90
67752;DHT22;54551;51.068;5.826;2023-05-10T04:32:05;14.80;99.90
67752;DHT22;54551;51.068;5.826;2023-05-10T04:34:31;14.80;99.90
67752;DHT22;54551;51.068;5.826;2023-05-10T04:36:59;14.80;99.90
67752;DHT22;54551;51.068;5.826;2023-05-10T04:39:25;14.80;99.90
67752;DHT22;54551;51.068;5.826;2023-05-10T04:41:51;14.90;99.90
67752;DHT22;54551;51.068;5.826;2023-05-10T04:44:17;14.80;99.90
67752;DHT22;54551;51.068;5.826;2023-05-10T04:46:43;14.90;99.90
67752;DHT22;54551;51.068;5.826;2023-05-10T04:49:08;14.90;99.90
67752;DHT22;54551;51.068;5.826;2023-05-10T04:51:34;14.90;99.90
67752;DHT22;54551;51.068;5.826;2023-05-10T04:54:00;14.90;99.90
67752;DHT22;54551;51.068;5.826;2023-05-10T04:56:26;14.90;99.90
67752;DHT22;54551;51.068;5.826;2023-05-10T04:58:52;15.00;99.90
67752;DHT22;54551;51.068;5.826;2023-05-10T05:01:18;15.00;99.90
67752;DHT22;54551;51.068;5.826;2023-05-10T05:03:44;15.00;99.90
67752;DHT22;54551;51.068;5.826;2023-05-10T05:06:10;15.00;99.90
67752;DHT22;54551;51.068;5.826;2023-05-10T05:08:35;15.00;99.90
67752;DHT22;54551;51.068;5.826;2023-05-10T05:11:01;15.00;99.90
67752;DHT22;54551;51.068;5.826;2023-05-10T05:13:27;15.00;99.90
67752;DHT22;54551;51.068;5.826;2023-05-10T05:15:53;15.00;99.90
67752;DHT22;54551;51.068;5.826;2023-05-10T05:18:20;14.90;99.90
67752;DHT22;54551;51.068;5.826;2023-05-10T05:20:46;14.90;99.90
67752;DHT22;54551;51.068;5.826;2023-05-10T05:23:12;14.90;99.90
67752;DHT22;54551;51.068;5.826;2023-05-10T05:25:37;15.00;99.90
67752;DHT22;54551;51.068;5.826;2023-05-10T05:28:04;14.90;99.90
67752;DHT22;54551;51.068;5.826;2023-05-10T05:30:30;14.90;99.90
67752;DHT22;54551;51.068;5.826;2023-05-10T05:32:55;14.90;99.90
67752;DHT22;54551;51.068;5.826;2023-05-10T05:35:22;14.90;99.90
67752;DHT22;54551;51.068;5.826;2023-05-10T05:37:48;14.90;99.90
67752;DHT22;54551;51.068;5.826;2023-05-10T05:40:13;14.90;99.90
67752;DHT22;54551;51.068;5.826;2023-05-10T05:42:40;14.90;99.90
67752;DHT22;54551;51.068;5.826;2023-05-10T05:45:06;15.00;99.90
67752;DHT22;54551;51.068;5.826;2023-05-10T05:47:32;15.00;99.90
67752;DHT22;54551;51.068;5.826;2023-05-10T05:49:58;15.00;99.90
67752;DHT22;54551;51.068;5.826;2023-05-10T05:52:24;15.00;99.90
67752;DHT22;54551;51.068;5.826;2023-05-10T05:54:49;14.90;99.90
67752;DHT22;54551;51.068;5.826;2023-05-10T05:57:15;15.00;99.90
67752;DHT22;54551;51.068;5.826;2023-05-10T05:59:41;15.00;99.90
67752;DHT22;54551;51.068;5.826;2023-05-10T06:02:10;15.00;99.90
67752;DHT22;54551;51.068;5.826;2023-05-10T06:04:36;15.10;99.90
67752;DHT22;54551;51.068;5.826;2023-05-10T06:07:02;15.10;99.90
67752;DHT22;54551;51.068;5.826;2023-05-10T06:09:28;15.20;99.90
67752;DHT22;54551;51.068;5.826;2023-05-10T06:11:54;15.30;99.90
67752;DHT22;54551;51.068;5.826;2023-05-10T06:14:21;15.30;99.90
67752;DHT22;54551;51.068;5.826;2023-05-10T06:16:47;15.30;99.90
67752;DHT22;54551;51.068;5.826;2023-05-10T06:19:13;15.40;99.90
67752;DHT22;54551;51.068;5.826;2023-05-10T06:21:39;15.50;99.90
67752;DHT22;54551;51.068;5.826;2023-05-10T06:24:05;15.50;99.90
67752;DHT22;54551;51.068;5.826;2023-05-10T06:26:32;15.60;99.90
67752;DHT22;54551;51.068;5.826;2023-05-10T06:28:58;15.80;99.90
67752;DHT22;54551;51.068;5.826;2023-05-10T06:31:24;16.00;99.90
67752;DHT22;54551;51.068;5.826;2023-05-10T06:33:50;16.20;99.90
67752;DHT22;54551;51.068;5.826;2023-05-10T06:36:16;16.50;99.90
67752;DHT22;54551;51.068;5.826;2023-05-10T06:38:42;16.70;99.90
67752;DHT22;54551;51.068;5.826;2023-05-10T06:41:08;17.00;99.90
67752;DHT22;54551;51.068;5.826;2023-05-10T06:43:34;17.30;99.90
67752;DHT22;54551;51.068;5.826;2023-05-10T06:46:00;17.70;99.90
67752;DHT22;54551;51.068;5.826;2023-05-10T06:48:26;18.00;99.90
67752;DHT22;54551;51.068;5.826;2023-05-10T06:50:52;18.10;99.90
67752;DHT22;54551;51.068;5.826;2023-05-10T06:53:18;18.20;99.90
67752;DHT22;54551;51.068;5.826;2023-05-10T06:55:44;18.20;99.90
67752;DHT22;54551;51.068;5.826;2023-05-10T06:58:09;18.20;99.90
67752;DHT22;54551;51.068;5.826;2023-05-10T07:00:35;18.10;99.90
67752;DHT22;54551;51.068;5.826;2023-05-10T07:03:06;18.10;99.90
67752;DHT22;54551;51.068;5.826;2023-05-10T07:05:31;18.10;99.90
67752;DHT22;54551;51.068;5.826;2023-05-10T07:07:57;18.10;99.90
67752;DHT22;54551;51.068;5.826;2023-05-10T07:10:23;18.10;99.90
67752;DHT22;54551;51.068;5.826;2023-05-10T07:12:49;18.20;99.90
67752;DHT22;54551;51.068;5.826;2023-05-10T07:15:15;18.10;99.90
67752;DHT22;54551;51.068;5.826;2023-05-10T07:17:41;18.00;99.90
67752;DHT22;54551;51.068;5.826;2023-05-10T07:20:07;18.00;99.90
67752;DHT22;54551;51.068;5.826;2023-05-10T07:22:33;17.90;99.90
67752;DHT22;54551;51.068;5.826;2023-05-10T07:24:59;17.80;99.90
67752;DHT22;54551;51.068;5.826;2023-05-10T07:27:25;17.60;99.90
67752;DHT22;54551;51.068;5.826;2023-05-10T07:29:51;17.40;99.90
67752;DHT22;54551;51.068;5.826;2023-05-10T07:32:17;17.30;99.90
67752;DHT22;54551;51.068;5.826;2023-05-10T07:34:43;17.30;99.90
67752;DHT22;54551;51.068;5.826;2023-05-10T07:37:09;17.20;99.90
67752;DHT22;54551;51.068;5.826;2023-05-10T07:39:35;17.10;99.90
67752;DHT22;54551;51.068;5.826;2023-05-10T07:42:00;17.00;99.90
67752;DHT22;54551;51.068;5.826;2023-05-10T07:44:26;16.90;99.90
67752;DHT22;54551;51.068;5.826;2023-05-10T07:46:52;16.90;99.90
67752;DHT22;54551;51.068;5.826;2023-05-10T07:49:18;16.90;99.90
67752;DHT22;54551;51.068;5.826;2023-05-10T07:51:44;16.80;99.90
67752;DHT22;54551;51.068;5.826;2023-05-10T07:54:10;16.80;99.90
67752;DHT22;54551;51.068;5.826;2023-05-10T07:56:36;16.80;99.90
67752;DHT22;54551;51.068;5.826;2023-05-10T07:59:03;16.80;99.90
67752;DHT22;54551;51.068;5.826;2023-05-10T08:01:33;16.70;99.90
67752;DHT22;54551;51.068;5.826;2023-05-10T08:04:00;16.70;99.90
67752;DHT22;54551;51.068;5.826;2023-05-10T08:06:27;16.70;99.90
67752;DHT22;54551;51.068;5.826;2023-05-10T08:08:55;16.60;99.90
67752;DHT22;54551;51.068;5.826;2023-05-10T08:11:22;16.50;99.90
67752;DHT22;54551;51.068;5.826;2023-05-10T08:13:49;16.40;99.90
67752;DHT22;54551;51.068;5.826;2023-05-10T08:16:16;16.40;99.90
67752;DHT22;54551;51.068;5.826;2023-05-10T08:18:43;16.40;99.90
67752;DHT22;54551;51.068;5.826;2023-05-10T08:21:10;16.40;99.90
67752;DHT22;54551;51.068;5.826;2023-05-10T08:23:37;16.40;99.90
67752;DHT22;54551;51.068;5.826;2023-05-10T08:26:03;16.40;99.90
67752;DHT22;54551;51.068;5.826;2023-05-10T08:28:29;16.40;99.90
67752;DHT22;54551;51.068;5.826;2023-05-10T08:30:56;16.40;99.90
67752;DHT22;54551;51.068;5.826;2023-05-10T08:33:22;16.40;99.90
67752;DHT22;54551;51.068;5.826;2023-05-10T08:35:48;16.30;99.90
67752;DHT22;54551;51.068;5.826;2023-05-10T08:38:14;16.30;99.90
67752;DHT22;54551;51.068;5.826;2023-05-10T08:40:43;16.20;99.90
67752;DHT22;54551;51.068;5.826;2023-05-10T08:43:13;16.20;99.90
67752;DHT22;54551;51.068;5.826;2023-05-10T08:45:44;16.20;99.90
67752;DHT22;54551;51.068;5.826;2023-05-10T08:48:14;16.30;99.90
67752;DHT22;54551;51.068;5.826;2023-05-10T08:50:44;16.30;99.90
67752;DHT22;54551;51.068;5.826;2023-05-10T08:53:13;16.30;99.90
67752;DHT22;54551;51.068;5.826;2023-05-10T08:55:39;16.40;99.90
67752;DHT22;54551;51.068;5.826;2023-05-10T08:58:08;16.50;99.90
67752;DHT22;54551;51.068;5.826;2023-05-10T09:00:35;16.60;99.90
67752;DHT22;54551;51.068;5.826;2023-05-10T09:03:04;16.80;99.90
67752;DHT22;54551;51.068;5.826;2023-05-10T09:05:30;16.90;99.90
67752;DHT22;54551;51.068;5.826;2023-05-10T09:07:56;17.00;99.90
67752;DHT22;54551;51.068;5.826;2023-05-10T09:10:23;17.10;99.90
67752;DHT22;54551;51.068;5.826;2023-05-10T09:12:51;17.30;99.90
67752;DHT22;54551;51.068;5.826;2023-05-10T09:15:18;17.60;99.90
67752;DHT22;54551;51.068;5.826;2023-05-10T09:17:46;17.90;99.90
67752;DHT22;54551;51.068;5.826;2023-05-10T09:20:12;18.20;99.90
67752;DHT22;54551;51.068;5.826;2023-05-10T09:22:39;18.30;99.90
67752;DHT22;54551;51.068;5.826;2023-05-10T09:25:09;18.50;99.90
67752;DHT22;54551;51.068;5.826;2023-05-10T09:27:37;18.60;99.90
67752;DHT22;54551;51.068;5.826;2023-05-10T09:30:04;18.70;99.90
67752;DHT22;54551;51.068;5.826;2023-05-10T09:32:39;18.90;99.90
67752;DHT22;54551;51.068;5.826;2023-05-10T09:35:15;19.00;99.90
67752;DHT22;54551;51.068;5.826;2023-05-10T09:37:42;19.10;99.90
67752;DHT22;54551;51.068;5.826;2023-05-10T09:40:12;19.20;99.90
67752;DHT22;54551;51.068;5.826;2023-05-10T09:42:38;19.30;99.90
67752;DHT22;54551;51.068;5.826;2023-05-10T09:45:05;19.40;99.90
67752;DHT22;54551;51.068;5.826;2023-05-10T09:47:35;19.50;99.90
67752;DHT22;54551;51.068;5.826;2023-05-10T09:50:02;19.60;99.90
67752;DHT22;54551;51.068;5.826;2023-05-10T09:52:30;19.70;99.90
67752;DHT22;54551;51.068;5.826;2023-05-10T09:54:56;19.70;99.90
67752;DHT22;54551;51.068;5.826;2023-05-10T09:57:23;19.90;99.90
67752;DHT22;54551;51.068;5.826;2023-05-10T09:59:50;20.00;99.90
67752;DHT22;54551;51.068;5.826;2023-05-10T10:02:16;20.20;99.90
67752;DHT22;54551;51.068;5.826;2023-05-10T10:04:42;20.30;99.90
67752;DHT22;54551;51.068;5.826;2023-05-10T10:07:09;20.30;99.90
67752;DHT22;54551;51.068;5.826;2023-05-10T10:09:35;20.30;99.90
67752;DHT22;54551;51.068;5.826;2023-05-10T10:12:02;20.30;99.90
67752;DHT22;54551;51.068;5.826;2023-05-10T10:14:31;20.20;99.90
67752;DHT22;54551;51.068;5.826;2023-05-10T10:17:00;20.20;99.90
67752;DHT22;54551;51.068;5.826;2023-05-10T10:19:26;20.10;99.90
67752;DHT22;54551;51.068;5.826;2023-05-10T10:21:52;20.00;99.90
67752;DHT22;54551;51.068;5.826;2023-05-10T10:24:18;19.90;99.90
67752;DHT22;54551;51.068;5.826;2023-05-10T10:26:45;19.70;99.90
67752;DHT22;54551;51.068;5.826;2023-05-10T10:32:05;19.70;99.90
67752;DHT22;54551;51.068;5.826;2023-05-10T10:34:32;19.80;99.90
67752;DHT22;54551;51.068;5.826;2023-05-10T10:37:04;19.80;99.90
67752;DHT22;54551;51.068;5.826;2023-05-10T10:39:31;19.80;99.90
67752;DHT22;54551;51.068;5.826;2023-05-10T10:41:58;19.70;99.90
67752;DHT22;54551;51.068;5.826;2023-05-10T10:47:21;19.60;99.90
67752;DHT22;54551;51.068;5.826;2023-05-10T10:50:02;19.90;99.90
67752;DHT22;54551;51.068;5.826;2023-05-10T10:52:37;20.40;99.90
67752;DHT22;54551;51.068;5.826;2023-05-10T10:55:17;20.90;99.90
67752;DHT22;54551;51.068;5.826;2023-05-10T10:57:45;21.20;99.90
67752;DHT22;54551;51.068;5.826;2023-05-10T11:00:22;21.30;99.90
67752;DHT22;54551;51.068;5.826;2023-05-10T11:02:49;21.40;99.90
67752;DHT22;54551;51.068;5.826;2023-05-10T11:07:53;21.30;99.90
67752;DHT22;54551;51.068;5.826;2023-05-10T11:10:20;21.50;99.90
67752;DHT22;54551;51.068;5.826;2023-05-10T11:13:00;22.10;99.90
67752;DHT22;54551;51.068;5.826;2023-05-10T11:17:59;22.70;99.90
67752;DHT22;54551;51.068;5.826;2023-05-10T11:20:32;22.70;99.90
67752;DHT22;54551;51.068;5.826;2023-05-10T11:23:14;22.60;99.90
67752;DHT22;54551;51.068;5.826;2023-05-10T11:25:48;22.60;99.90
67752;DHT22;54551;51.068;5.826;2023-05-10T11:28:16;22.40;99.90
67752;DHT22;54551;51.068;5.826;2023-05-10T11:30:44;22.20;99.90
67752;DHT22;54551;51.068;5.826;2023-05-10T11:33:15;21.90;99.90
67752;DHT22;54551;51.068;5.826;2023-05-10T11:35:42;21.70;99.90
67752;DHT22;54551;51.068;5.826;2023-05-10T11:38:12;21.50;99.90
67752;DHT22;54551;51.068;5.826;2023-05-10T11:40:39;21.40;99.90
67752;DHT22;54551;51.068;5.826;2023-05-10T11:43:06;21.30;99.90
67752;DHT22;54551;51.068;5.826;2023-05-10T11:45:32;21.30;99.90
67752;DHT22;54551;51.068;5.826;2023-05-10T11:47:59;21.40;99.90
67752;DHT22;54551;51.068;5.826;2023-05-10T11:50:25;21.50;99.90
67752;DHT22;54551;51.068;5.826;2023-05-10T11:52:52;21.50;99.90
67752;DHT22;54551;51.068;5.826;2023-05-10T11:55:19;21.90;99.90
67752;DHT22;54551;51.068;5.826;2023-05-10T11:57:45;22.30;99.90
67752;DHT22;54551;51.068;5.826;2023-05-10T12:00:14;22.70;99.90
67752;DHT22;54551;51.068;5.826;2023-05-10T12:02:42;23.10;99.90
67752;DHT22;54551;51.068;5.826;2023-05-10T12:05:08;23.30;99.90
67752;DHT22;54551;51.068;5.826;2023-05-10T12:07:34;23.20;99.90
67752;DHT22;54551;51.068;5.826;2023-05-10T12:10:10;23.10;99.90
67752;DHT22;54551;51.068;5.826;2023-05-10T12:12:45;23.00;99.90
67752;DHT22;54551;51.068;5.826;2023-05-10T12:15:19;22.70;99.90
67752;DHT22;54551;51.068;5.826;2023-05-10T12:17:46;22.40;99.90
67752;DHT22;54551;51.068;5.826;2023-05-10T12:20:20;22.30;99.90
67752;DHT22;54551;51.068;5.826;2023-05-10T12:22:50;22.20;99.90
67752;DHT22;54551;51.068;5.826;2023-05-10T12:25:18;22.10;99.90
67752;DHT22;54551;51.068;5.826;2023-05-10T12:27:49;22.10;99.90
67752;DHT22;54551;51.068;5.826;2023-05-10T12:30:23;22.30;99.90
67752;DHT22;54551;51.068;5.826;2023-05-10T12:32:49;22.40;99.90
67752;DHT22;54551;51.068;5.826;2023-05-10T12:35:16;22.40;99.90
67752;DHT22;54551;51.068;5.826;2023-05-10T12:37:43;22.50;99.90
67752;DHT22;54551;51.068;5.826;2023-05-10T12:40:10;22.60;99.90
67752;DHT22;54551;51.068;5.826;2023-05-10T12:42:38;22.60;99.90
67752;DHT22;54551;51.068;5.826;2023-05-10T12:45:05;22.50;99.90
67752;DHT22;54551;51.068;5.826;2023-05-10T12:47:32;22.40;99.90
67752;DHT22;54551;51.068;5.826;2023-05-10T12:50:00;22.30;99.90
67752;DHT22;54551;51.068;5.826;2023-05-10T12:52:26;22.30;99.90
67752;DHT22;54551;51.068;5.826;2023-05-10T12:54:53;22.30;99.90
67752;DHT22;54551;51.068;5.826;2023-05-10T12:57:20;22.30;99.90
67752;DHT22;54551;51.068;5.826;2023-05-10T12:59:46;22.30;99.90
67752;DHT22;54551;51.068;5.826;2023-05-10T13:02:12;22.30;99.90
67752;DHT22;54551;51.068;5.826;2023-05-10T13:04:38;22.30;99.90
67752;DHT22;54551;51.068;5.826;2023-05-10T13:07:08;22.30;99.90
67752;DHT22;54551;51.068;5.826;2023-05-10T13:09:34;22.40;99.90
67752;DHT22;54551;51.068;5.826;2023-05-10T13:12:00;22.50;99.90
67752;DHT22;54551;51.068;5.826;2023-05-10T13:14:26;22.50;99.90
67752;DHT22;54551;51.068;5.826;2023-05-10T13:16:52;22.50;99.90
67752;DHT22;54551;51.068;5.826;2023-05-10T13:19:19;22.70;99.90
67752;DHT22;54551;51.068;5.826;2023-05-10T13:21:46;23.00;99.90
67752;DHT22;54551;51.068;5.826;2023-05-10T13:24:12;23.40;99.90
67752;DHT22;54551;51.068;5.826;2023-05-10T13:26:40;23.60;99.90
67752;DHT22;54551;51.068;5.826;2023-05-10T13:29:07;23.80;99.90
67752;DHT22;54551;51.068;5.826;2023-05-10T13:31:33;23.90;99.90
67752;DHT22;54551;51.068;5.826;2023-05-10T13:34:00;23.80;99.90
67752;DHT22;54551;51.068;5.826;2023-05-10T13:36:26;23.70;99.90
67752;DHT22;54551;51.068;5.826;2023-05-10T13:38:52;23.60;99.90
67752;DHT22;54551;51.068;5.826;2023-05-10T13:41:18;23.40;99.90
67752;DHT22;54551;51.068;5.826;2023-05-10T13:43:43;23.10;99.90
67752;DHT22;54551;51.068;5.826;2023-05-10T13:46:09;22.90;99.90
67752;DHT22;54551;51.068;5.826;2023-05-10T13:48:35;22.80;99.90
67752;DHT22;54551;51.068;5.826;2023-05-10T13:51:04;22.60;99.90
67752;DHT22;54551;51.068;5.826;2023-05-10T13:53:30;22.30;99.90
67752;DHT22;54551;51.068;5.826;2023-05-10T13:55:56;22.20;99.90
67752;DHT22;54551;51.068;5.826;2023-05-10T13:58:21;22.20;99.90
67752;DHT22;54551;51.068;5.826;2023-05-10T14:00:47;22.20;99.90
67752;DHT22;54551;51.068;5.826;2023-05-10T14:03:13;22.20;99.90
67752;DHT22;54551;51.068;5.826;2023-05-10T14:05:39;22.10;99.90
67752;DHT22;54551;51.068;5.826;2023-05-10T14:08:05;22.20;99.90
67752;DHT22;54551;51.068;5.826;2023-05-10T14:10:31;22.20;99.90
67752;DHT22;54551;51.068;5.826;2023-05-10T14:12:57;22.00;99.90
67752;DHT22;54551;51.068;5.826;2023-05-10T14:15:23;21.90;99.90
67752;DHT22;54551;51.068;5.826;2023-05-10T14:17:49;21.80;99.90
67752;DHT22;54551;51.068;5.826;2023-05-10T14:20:14;21.70;99.90
67752;DHT22;54551;51.068;5.826;2023-05-10T14:22:40;21.50;99.90
67752;DHT22;54551;51.068;5.826;2023-05-10T14:25:06;21.40;99.90
67752;DHT22;54551;51.068;5.826;2023-05-10T14:27:33;21.40;99.90
67752;DHT22;54551;51.068;5.826;2023-05-10T14:29:59;21.40;99.90
67752;DHT22;54551;51.068;5.826;2023-05-10T14:32:24;21.40;99.90
67752;DHT22;54551;51.068;5.826;2023-05-10T14:34:52;21.50;99.90
67752;DHT22;54551;51.068;5.826;2023-05-10T14:37:18;21.50;99.90
67752;DHT22;54551;51.068;5.826;2023-05-10T14:39:44;21.50;99.90
67752;DHT22;54551;51.068;5.826;2023-05-10T14:42:10;21.50;99.90
67752;DHT22;54551;51.068;5.826;2023-05-10T14:44:36;21.60;99.90
67752;DHT22;54551;51.068;5.826;2023-05-10T14:47:02;21.80;99.90
67752;DHT22;54551;51.068;5.826;2023-05-10T14:49:27;21.90;99.90
67752;DHT22;54551;51.068;5.826;2023-05-10T14:51:54;22.00;99.90
67752;DHT22;54551;51.068;5.826;2023-05-10T14:54:20;22.10;99.90
67752;DHT22;54551;51.068;5.826;2023-05-10T14:56:46;22.20;99.90
67752;DHT22;54551;51.068;5.826;2023-05-10T14:59:15;22.20;99.90
67752;DHT22;54551;51.068;5.826;2023-05-10T15:01:41;22.30;99.90
67752;DHT22;54551;51.068;5.826;2023-05-10T15:04:07;22.20;99.90
67752;DHT22;54551;51.068;5.826;2023-05-10T15:06:34;22.20;99.90
67752;DHT22;54551;51.068;5.826;2023-05-10T15:09:01;22.10;99.90
67752;DHT22;54551;51.068;5.826;2023-05-10T15:11:28;22.00;99.90
67752;DHT22;54551;51.068;5.826;2023-05-10T15:13:55;21.80;99.90
67752;DHT22;54551;51.068;5.826;2023-05-10T15:16:21;21.70;99.90
67752;DHT22;54551;51.068;5.826;2023-05-10T15:18:47;21.70;99.90
67752;DHT22;54551;51.068;5.826;2023-05-10T15:21:13;21.60;99.90
67752;DHT22;54551;51.068;5.826;2023-05-10T15:23:39;21.50;99.90
67752;DHT22;54551;51.068;5.826;2023-05-10T15:26:05;21.60;99.90
67752;DHT22;54551;51.068;5.826;2023-05-10T15:28:31;21.50;99.90
67752;DHT22;54551;51.068;5.826;2023-05-10T15:30:57;21.40;99.90
67752;DHT22;54551;51.068;5.826;2023-05-10T15:33:23;21.30;99.90
67752;DHT22;54551;51.068;5.826;2023-05-10T15:35:50;21.10;99.90
67752;DHT22;54551;51.068;5.826;2023-05-10T15:38:16;21.10;99.90
67752;DHT22;54551;51.068;5.826;2023-05-10T15:40:42;20.90;99.90
67752;DHT22;54551;51.068;5.826;2023-05-10T15:43:07;20.80;99.90
67752;DHT22;54551;51.068;5.826;2023-05-10T15:45:33;20.70;99.90
67752;DHT22;54551;51.068;5.826;2023-05-10T15:48:00;20.60;99.90
67752;DHT22;54551;51.068;5.826;2023-05-10T15:50:27;20.40;99.90
67752;DHT22;54551;51.068;5.826;2023-05-10T15:52:52;20.30;99.90
67752;DHT22;54551;51.068;5.826;2023-05-10T15:55:19;20.20;99.90
67752;DHT22;54551;51.068;5.826;2023-05-10T15:57:45;20.10;99.90
67752;DHT22;54551;51.068;5.826;2023-05-10T16:00:12;20.10;99.90